Time;durP1;ratioP1;P1;durP2;ratioP2;P2;SDS_P1;SDS_P2;PMS_P1;PMS_P2;Temp;Humidity;BMP_temperature;BMP_pressure;BME280_temperature;BME280_humidity;BME280_pressure;Samples;Min_cycle;Max_cycle;Signal;HPM_P1;HPM_P2
2021/01/22 00:01:07;;;;;;;3.80;0.70;;;10.20;99.90;;;;;;5009777;28;20463;-55
2021/01/22 00:03:33;;;;;;;3.60;0.87;;;10.00;99.90;;;;;;5008425;28;20909;-55
2021/01/22 00:05:59;;;;;;;3.50;1.10;;;10.00;99.90;;;;;;5006973;28;20885;-54
2021/01/22 00:08:24;;;;;;;3.00;0.88;;;10.00;99.90;;;;;;5009885;28;20431;-55
2021/01/22 00:10:50;;;;;;;3.80;0.90;;;9.80;99.90;;;;;;5008811;28;20384;-54
2021/01/22 00:13:15;;;;;;;4.05;1.15;;;9.80;99.90;;;;;;5008639;28;20400;-55
2021/01/22 00:15:41;;;;;;;4.13;1.50;;;9.70;99.90;;;;;;5009646;28;20389;-55
2021/01/22 00:18:07;;;;;;;2.75;0.70;;;9.60;99.90;;;;;;5007594;28;20412;-55
2021/01/22 00:20:32;;;;;;;3.30;0.80;;;9.60;99.90;;;;;;5009947;28;20742;-55
2021/01/22 00:22:58;;;;;;;4.63;1.00;;;9.60;99.90;;;;;;5008869;28;20404;-55
2021/01/22 00:25:24;;;;;;;3.20;0.97;;;9.60;99.90;;;;;;5011611;28;20886;-55
2021/01/22 00:27:49;;;;;;;3.45;1.00;;;9.60;99.90;;;;;;5012573;28;20423;-54
2021/01/22 00:30:15;;;;;;;3.40;1.10;;;9.60;99.90;;;;;;5011892;28;20427;-55
2021/01/22 00:32:41;;;;;;;3.40;1.20;;;9.50;99.90;;;;;;5013285;28;20732;-55
2021/01/22 00:35:07;;;;;;;4.28;1.40;;;9.50;99.90;;;;;;5009921;28;20470;-55
2021/01/22 00:37:33;;;;;;;3.30;0.90;;;9.50;99.90;;;;;;5012659;28;20396;-55
2021/01/22 00:39:58;;;;;;;3.95;0.90;;;9.40;99.90;;;;;;5012031;28;20397;-55
2021/01/22 00:42:24;;;;;;;3.08;0.88;;;9.40;99.90;;;;;;5012247;28;20397;-55
2021/01/22 00:44:50;;;;;;;3.90;2.17;;;9.50;99.90;;;;;;5010625;28;20399;-54
2021/01/22 00:47:15;;;;;;;4.38;0.90;;;9.40;99.90;;;;;;5013014;28;20495;-55
2021/01/22 00:49:41;;;;;;;3.60;1.93;;;9.40;99.90;;;;;;5012127;28;20397;-55
2021/01/22 00:52:07;;;;;;;4.60;1.80;;;9.20;99.90;;;;;;5011206;28;20921;-55
2021/01/22 00:54:32;;;;;;;3.80;2.00;;;9.20;99.90;;;;;;5013346;28;20735;-55
2021/01/22 00:56:58;;;;;;;3.53;1.00;;;9.30;99.90;;;;;;5010791;28;20466;-55
2021/01/22 00:59:23;;;;;;;3.00;1.70;;;9.20;99.90;;;;;;5012993;28;20444;-55
2021/01/22 01:01:49;;;;;;;3.30;1.50;;;9.30;99.90;;;;;;5011105;28;20882;-54
2021/01/22 01:04:15;;;;;;;4.30;1.40;;;9.30;99.90;;;;;;5012456;28;20456;-55
2021/01/22 01:06:41;;;;;;;3.33;1.10;;;9.30;99.90;;;;;;5012251;28;20561;-54
2021/01/22 01:09:07;;;;;;;3.00;1.33;;;9.20;99.90;;;;;;5009466;28;20475;-55
2021/01/22 01:11:33;;;;;;;3.90;2.20;;;9.20;99.90;;;;;;5007774;28;20407;-54
2021/01/22 01:13:58;;;;;;;3.30;1.40;;;9.20;99.90;;;;;;5004215;28;20429;-54
2021/01/22 01:16:24;;;;;;;2.80;1.20;;;9.20;99.90;;;;;;5003587;28;20389;-54
2021/01/22 01:18:50;;;;;;;5.40;1.40;;;9.30;99.90;;;;;;5011018;28;20886;-54
2021/01/22 01:21:16;;;;;;;3.17;1.10;;;9.30;99.90;;;;;;5012918;28;20453;-55
2021/01/22 01:23:41;;;;;;;3.00;1.30;;;9.40;99.90;;;;;;5011365;28;20400;-55
2021/01/22 01:26:07;;;;;;;3.10;1.40;;;9.40;99.90;;;;;;5011851;28;20485;-55
2021/01/22 01:28:33;;;;;;;2.70;1.08;;;9.40;99.90;;;;;;5011263;28;20459;-55
2021/01/22 01:30:58;;;;;;;2.90;1.20;;;9.50;99.90;;;;;;5006280;28;20417;-54
2021/01/22 01:33:24;;;;;;;3.10;1.10;;;9.50;99.90;;;;;;4999617;28;22271;-54
2021/01/22 01:35:51;;;;;;;3.10;1.07;;;9.60;99.90;;;;;;4997647;28;20722;-54
2021/01/22 01:38:18;;;;;;;2.80;1.25;;;9.70;99.90;;;;;;5000143;28;20418;-54
2021/01/22 01:40:44;;;;;;;3.80;1.50;;;9.80;99.90;;;;;;5002376;28;20484;-54
2021/01/22 01:43:11;;;;;;;3.20;1.30;;;9.60;99.90;;;;;;4999931;28;20542;-54
2021/01/22 01:45:41;;;;;;;3.30;1.20;;;9.50;99.90;;;;;;5000471;28;20409;-55
2021/01/22 01:48:09;;;;;;;3.10;1.20;;;9.60;99.90;;;;;;5007395;28;20416;-55
2021/01/22 01:50:35;;;;;;;3.67;1.45;;;9.50;99.90;;;;;;5010253;28;20404;-55
2021/01/22 01:53:02;;;;;;;3.10;1.20;;;9.50;99.90;;;;;;5009782;28;20405;-55
2021/01/22 01:55:29;;;;;;;2.90;1.20;;;9.40;99.90;;;;;;5011948;28;20450;-55
2021/01/22 01:57:55;;;;;;;3.25;1.40;;;9.40;99.90;;;;;;5011224;28;20389;-55
2021/01/22 02:00:21;;;;;;;2.90;1.30;;;9.40;99.90;;;;;;5010929;28;20755;-55
2021/01/22 02:02:46;;;;;;;3.90;1.50;;;9.40;99.90;;;;;;5011274;28;20491;-54
2021/01/22 02:05:12;;;;;;;4.77;1.80;;;9.30;99.90;;;;;;5011836;28;20793;-54
2021/01/22 02:07:38;;;;;;;4.30;1.80;;;9.20;99.90;;;;;;5005764;28;20424;-54
2021/01/22 02:10:05;;;;;;;2.80;1.30;;;9.20;99.90;;;;;;4997674;28;20401;-55
2021/01/22 02:12:32;;;;;;;4.25;1.75;;;9.20;99.90;;;;;;4997782;28;20866;-54
2021/01/22 02:15:00;;;;;;;3.90;2.00;;;9.20;99.90;;;;;;4999652;28;21483;-55
2021/01/22 02:17:26;;;;;;;3.60;1.77;;;9.30;99.90;;;;;;5005939;28;20874;-55
2021/01/22 02:20:35;;;;;;;3.30;1.60;;;9.30;99.90;;;;;;4998366;28;20401;-54
2021/01/22 02:23:03;;;;;;;4.50;1.90;;;9.30;99.90;;;;;;4988782;28;23581;-55
2021/01/22 02:25:40;;;;;;;4.20;2.50;;;9.30;99.90;;;;;;4996366;28;20474;-55
2021/01/22 02:28:09;;;;;;;3.97;1.50;;;9.40;99.90;;;;;;4994160;28;20508;-54
2021/01/22 02:30:35;;;;;;;3.20;1.55;;;9.40;99.90;;;;;;5000101;28;20423;-54
2021/01/22 02:33:03;;;;;;;5.88;1.60;;;9.30;99.90;;;;;;5009371;28;20411;-55
2021/01/22 02:35:30;;;;;;;4.50;1.45;;;9.30;99.90;;;;;;5006782;28;20389;-55
2021/01/22 02:37:56;;;;;;;3.20;1.20;;;9.40;99.90;;;;;;5009113;28;20879;-54
2021/01/22 02:40:22;;;;;;;3.30;1.08;;;9.40;99.90;;;;;;5010843;28;20389;-55
2021/01/22 02:42:49;;;;;;;3.22;1.10;;;9.50;99.90;;;;;;5011150;28;20468;-54
2021/01/22 02:45:16;;;;;;;4.53;1.15;;;9.30;99.90;;;;;;5009518;28;20404;-55
2021/01/22 02:47:45;;;;;;;3.97;1.27;;;9.20;99.90;;;;;;5011192;28;20417;-55
2021/01/22 02:50:15;;;;;;;3.70;1.40;;;9.20;99.90;;;;;;5008811;28;20447;-55
2021/01/22 02:52:41;;;;;;;3.40;1.20;;;9.20;99.90;;;;;;5011285;28;20455;-54
2021/01/22 02:55:08;;;;;;;4.10;1.80;;;9.20;99.90;;;;;;5008792;28;20405;-55
2021/01/22 02:57:48;;;;;;;3.80;1.70;;;9.20;99.90;;;;;;5000286;28;20401;-54
2021/01/22 03:00:25;;;;;;;3.63;1.08;;;9.20;99.90;;;;;;5003768;28;20397;-55
2021/01/22 03:03:15;;;;;;;4.30;2.40;;;9.20;99.90;;;;;;5009681;28;20898;-54
2021/01/22 03:05:42;;;;;;;4.53;2.30;;;9.10;99.90;;;;;;4998416;28;20396;-55
2021/01/22 03:08:12;;;;;;;4.00;2.20;;;9.00;99.90;;;;;;5009659;28;20996;-55
2021/01/22 03:10:39;;;;;;;3.30;1.70;;;9.00;99.90;;;;;;5011209;28;20847;-55
2021/01/22 03:13:06;;;;;;;4.10;1.70;;;8.90;99.90;;;;;;5008637;28;20419;-55
2021/01/22 03:15:34;;;;;;;3.40;0.80;;;8.90;99.90;;;;;;5001747;28;20416;-54
2021/01/22 03:18:19;;;;;;;3.47;1.08;;;8.90;99.90;;;;;;5008679;28;20425;-54
2021/01/22 03:20:48;;;;;;;3.60;1.00;;;8.90;99.90;;;;;;5009898;28;20400;-54
2021/01/22 03:23:17;;;;;;;6.30;1.30;;;8.90;99.90;;;;;;5009012;28;20447;-54
2021/01/22 03:25:43;;;;;;;4.00;1.00;;;8.80;99.90;;;;;;5010719;28;20392;-55
2021/01/22 03:28:09;;;;;;;4.35;1.00;;;8.80;99.90;;;;;;5008272;28;20416;-55
2021/01/22 03:30:35;;;;;;;3.70;1.20;;;8.70;99.90;;;;;;5010573;28;20480;-55
2021/01/22 03:33:01;;;;;;;3.92;1.00;;;8.70;99.90;;;;;;5008233;28;20882;-55
2021/01/22 03:35:28;;;;;;;4.00;0.98;;;8.70;99.90;;;;;;5009568;28;20381;-54
2021/01/22 03:37:54;;;;;;;4.20;0.70;;;8.70;99.90;;;;;;5008670;28;20397;-54
2021/01/22 03:40:20;;;;;;;6.13;1.20;;;8.80;99.90;;;;;;5010111;28;20381;-55
2021/01/22 03:42:46;;;;;;;4.05;0.98;;;8.90;99.90;;;;;;5009145;28;20508;-55
2021/01/22 03:45:16;;;;;;;6.77;1.10;;;8.80;99.90;;;;;;5009361;28;20428;-55
2021/01/22 03:47:42;;;;;;;4.32;0.93;;;8.80;99.90;;;;;;5005892;28;20417;-56
2021/01/22 03:50:09;;;;;;;4.70;1.20;;;8.90;99.90;;;;;;5005246;28;20500;-55
2021/01/22 03:52:35;;;;;;;4.18;1.15;;;8.90;99.90;;;;;;5000649;28;20420;-55
2021/01/22 03:55:01;;;;;;;4.75;1.10;;;9.00;99.90;;;;;;5003066;28;20790;-55
2021/01/22 03:57:26;;;;;;;4.80;1.10;;;8.80;99.90;;;;;;5006067;28;20400;-55
2021/01/22 03:59:52;;;;;;;3.60;0.80;;;8.90;99.90;;;;;;5003982;28;20410;-54
2021/01/22 04:02:17;;;;;;;6.80;1.10;;;8.80;99.90;;;;;;5006496;28;20404;-54
2021/01/22 04:04:44;;;;;;;4.15;1.25;;;8.60;99.90;;;;;;5012395;28;20747;-55
2021/01/22 04:07:11;;;;;;;4.78;0.98;;;8.70;99.90;;;;;;5004415;28;20423;-54
2021/01/22 04:09:36;;;;;;;3.83;1.08;;;8.60;99.90;;;;;;5007595;28;20447;-54
2021/01/22 04:12:02;;;;;;;6.00;3.90;;;8.60;99.90;;;;;;5004652;28;20429;-55
2021/01/22 04:14:28;;;;;;;5.43;2.30;;;8.60;99.90;;;;;;5008522;28;20467;-55
2021/01/22 04:16:54;;;;;;;4.97;1.60;;;8.50;99.90;;;;;;5001577;28;20452;-54
2021/01/22 04:19:20;;;;;;;4.68;2.40;;;8.50;99.90;;;;;;5000864;28;20410;-54
2021/01/22 04:21:46;;;;;;;5.00;2.13;;;8.40;99.90;;;;;;5013979;28;20403;-55
2021/01/22 04:24:11;;;;;;;5.57;3.03;;;8.50;99.90;;;;;;5013779;28;20385;-55
2021/01/22 04:26:37;;;;;;;5.13;3.30;;;8.60;99.90;;;;;;5012098;28;20408;-55
2021/01/22 04:29:03;;;;;;;7.40;3.80;;;8.60;99.90;;;;;;5006669;28;20411;-55
2021/01/22 04:31:28;;;;;;;4.22;3.25;;;8.60;99.90;;;;;;5007809;28;20596;-56
2021/01/22 04:33:54;;;;;;;5.00;3.30;;;8.70;99.90;;;;;;5012866;28;20381;-56
2021/01/22 04:36:20;;;;;;;4.43;3.33;;;8.60;99.90;;;;;;5009141;28;20512;-55
2021/01/22 04:38:45;;;;;;;6.07;3.10;;;8.60;99.90;;;;;;5001261;28;20405;-54
2021/01/22 04:41:11;;;;;;;5.35;2.95;;;8.70;99.90;;;;;;5007314;28;20396;-56
2021/01/22 04:43:44;;;;;;;5.50;2.90;;;8.70;99.90;;;;;;5013796;28;20717;-55
2021/01/22 04:46:10;;;;;;;4.40;3.10;;;8.60;99.90;;;;;;5011132;28;20487;-55
2021/01/22 04:48:37;;;;;;;5.40;3.00;;;8.60;99.90;;;;;;5013785;28;20420;-55
2021/01/22 04:51:04;;;;;;;4.93;2.90;;;8.60;99.90;;;;;;5010677;28;20403;-55
2021/01/22 04:53:31;;;;;;;4.40;3.10;;;8.60;99.90;;;;;;5013402;28;20385;-55
2021/01/22 04:55:59;;;;;;;4.93;3.03;;;8.60;99.90;;;;;;5009134;28;20891;-57
2021/01/22 04:58:27;;;;;;;5.13;2.75;;;8.70;99.90;;;;;;5013651;28;20385;-56
2021/01/22 05:00:53;;;;;;;6.15;2.60;;;8.60;99.90;;;;;;5006028;28;20423;-55
2021/01/22 05:03:20;;;;;;;5.95;2.30;;;8.60;99.90;;;;;;5018277;28;21427;-56
2021/01/22 05:05:46;;;;;;;4.93;2.40;;;8.50;99.90;;;;;;5007445;28;20870;-56
2021/01/22 05:08:12;;;;;;;4.03;2.00;;;8.60;99.90;;;;;;5002534;28;20444;-56
2021/01/22 05:10:37;;;;;;;4.95;2.83;;;8.60;99.90;;;;;;5001452;28;20441;-56
2021/01/22 05:13:03;;;;;;;4.10;2.50;;;8.50;99.90;;;;;;4999052;28;20411;-56
2021/01/22 05:15:29;;;;;;;6.00;2.70;;;8.50;99.90;;;;;;5010419;28;20408;-56
2021/01/22 05:18:05;;;;;;;5.10;2.70;;;8.50;99.90;;;;;;5012075;28;20393;-55
2021/01/22 05:20:40;;;;;;;3.70;2.50;;;8.50;99.90;;;;;;5011027;28;20401;-56
2021/01/22 05:23:10;;;;;;;3.60;2.03;;;8.50;99.90;;;;;;5004348;28;20421;-56
2021/01/22 05:25:58;;;;;;;4.40;1.95;;;8.50;99.90;;;;;;5012699;28;20909;-56
2021/01/22 05:28:43;;;;;;;5.43;1.90;;;8.50;99.90;;;;;;5011117;28;20411;-56
2021/01/22 05:31:12;;;;;;;4.70;2.30;;;8.50;99.90;;;;;;5011544;28;20432;-56
2021/01/22 05:33:39;;;;;;;5.50;2.50;;;8.50;99.90;;;;;;5011885;28;20424;-56
2021/01/22 05:36:25;;;;;;;4.15;2.80;;;8.50;99.90;;;;;;5010164;28;20401;-56
2021/01/22 05:38:52;;;;;;;4.47;2.30;;;8.50;99.90;;;;;;5013116;28;20420;-55
2021/01/22 05:41:18;;;;;;;5.32;3.08;;;8.50;99.90;;;;;;5009805;28;20455;-57
2021/01/22 05:43:44;;;;;;;5.10;3.30;;;8.50;99.90;;;;;;5006084;28;20389;-56
2021/01/22 05:46:14;;;;;;;5.70;5.10;;;8.50;99.90;;;;;;5010179;28;20540;-56
2021/01/22 05:48:41;;;;;;;5.30;4.03;;;8.40;99.90;;;;;;4999018;28;20392;-56
2021/01/22 05:51:07;;;;;;;4.75;3.83;;;8.40;99.90;;;;;;4998675;28;20389;-57
2021/01/22 05:53:33;;;;;;;5.10;4.00;;;8.50;99.90;;;;;;5008115;28;20393;-56
2021/01/22 05:56:06;;;;;;;5.00;4.10;;;8.50;99.90;;;;;;5008449;28;20399;-56
2021/01/22 05:58:32;;;;;;;4.20;3.78;;;8.50;99.90;;;;;;5009597;28;20396;-57
2021/01/22 06:01:18;;;;;;;4.05;3.65;;;8.50;99.90;;;;;;5010669;28;20392;-57
2021/01/22 06:03:51;;;;;;;4.90;3.30;;;8.40;99.90;;;;;;5010999;28;20495;-56
2021/01/22 06:06:19;;;;;;;4.28;2.97;;;8.50;99.90;;;;;;5010363;28;20393;-57
2021/01/22 06:08:53;;;;;;;3.83;2.65;;;8.60;99.90;;;;;;5011348;28;20467;-56
2021/01/22 06:11:21;;;;;;;3.60;3.20;;;8.60;99.90;;;;;;5010048;28;20430;-56
2021/01/22 06:13:50;;;;;;;3.95;2.67;;;8.60;99.90;;;;;;4997835;28;20921;-56
2021/01/22 06:16:21;;;;;;;3.88;2.88;;;8.60;99.90;;;;;;5010118;28;20748;-56
2021/01/22 06:18:59;;;;;;;3.75;3.00;;;8.60;99.90;;;;;;5010755;28;20417;-56
2021/01/22 06:21:34;;;;;;;5.40;3.30;;;8.70;99.90;;;;;;5009224;28;20936;-56
2021/01/22 06:24:01;;;;;;;4.93;3.00;;;8.70;99.90;;;;;;5008603;28;20397;-56
2021/01/22 06:26:29;;;;;;;3.40;3.00;;;8.80;99.90;;;;;;5010439;28;20420;-56
2021/01/22 06:28:59;;;;;;;3.90;3.20;;;8.80;99.90;;;;;;5009685;28;20432;-55
2021/01/22 06:31:27;;;;;;;4.30;3.30;;;8.70;99.90;;;;;;5009786;28;20531;-56
2021/01/22 06:33:55;;;;;;;5.60;2.90;;;8.70;99.90;;;;;;5010163;28;20894;-55
2021/01/22 06:36:22;;;;;;;4.35;3.00;;;8.60;99.90;;;;;;5010268;28;20431;-56
2021/01/22 06:38:49;;;;;;;3.85;2.90;;;8.70;99.90;;;;;;5009311;28;20901;-56
2021/01/22 06:41:16;;;;;;;3.30;2.80;;;8.70;99.90;;;;;;5010024;28;20392;-55
2021/01/22 06:43:42;;;;;;;4.80;3.03;;;8.60;99.90;;;;;;5011429;28;20439;-55
2021/01/22 06:46:14;;;;;;;4.80;3.80;;;8.60;99.90;;;;;;5008819;28;20435;-55
2021/01/22 06:48:53;;;;;;;4.38;2.90;;;8.60;99.90;;;;;;5010508;28;20423;-55
2021/01/22 06:51:20;;;;;;;5.50;3.43;;;8.60;99.90;;;;;;5008827;28;20410;-55
2021/01/22 06:54:08;;;;;;;4.07;3.60;;;8.60;99.90;;;;;;5010974;28;20392;-55
2021/01/22 06:56:48;;;;;;;6.38;3.50;;;8.60;99.90;;;;;;5002200;28;20417;-55
2021/01/22 06:59:37;;;;;;;5.23;3.50;;;8.70;99.90;;;;;;5009178;28;20376;-56
2021/01/22 07:02:03;;;;;;;4.60;3.00;;;8.60;99.90;;;;;;5006217;28;20421;-55
2021/01/22 07:04:29;;;;;;;4.00;2.60;;;8.50;99.90;;;;;;5008676;28;20915;-56
2021/01/22 07:06:56;;;;;;;4.38;1.80;;;8.50;99.90;;;;;;5004554;28;20410;-55
2021/01/22 07:09:47;;;;;;;4.70;1.50;;;8.50;99.90;;;;;;5003432;28;20397;-57
2021/01/22 07:12:14;;;;;;;4.80;1.30;;;8.50;99.90;;;;;;5009316;28;20377;-56
2021/01/22 07:14:45;;;;;;;3.60;1.27;;;8.60;99.90;;;;;;5007010;28;20490;-56
2021/01/22 07:17:17;;;;;;;3.20;1.20;;;8.60;99.90;;;;;;5008787;28;20491;-56
2021/01/22 07:20:07;;;;;;;3.10;1.30;;;8.60;99.90;;;;;;5007171;28;20420;-55
2021/01/22 07:22:33;;;;;;;4.68;1.60;;;8.60;99.90;;;;;;5008204;28;20422;-56
2021/01/22 07:25:01;;;;;;;5.93;1.77;;;8.60;99.90;;;;;;4997653;28;20416;-56
2021/01/22 07:27:44;;;;;;;5.30;1.70;;;8.50;99.90;;;;;;5004135;28;20424;-55
2021/01/22 07:30:14;;;;;;;3.70;1.90;;;8.60;99.90;;;;;;5005434;28;20589;-55
2021/01/22 07:32:42;;;;;;;4.13;1.80;;;8.60;99.90;;;;;;5008468;28;20402;-56
2021/01/22 07:35:24;;;;;;;4.00;1.80;;;8.60;99.90;;;;;;5007704;28;20436;-56
2021/01/22 07:37:51;;;;;;;3.50;1.60;;;8.50;99.90;;;;;;5006209;28;20446;-57
2021/01/22 07:40:18;;;;;;;3.90;2.30;;;8.80;99.90;;;;;;5005481;28;20934;-56
2021/01/22 07:42:45;;;;;;;5.30;2.50;;;8.60;99.90;;;;;;5005873;28;20915;-55
2021/01/22 07:45:15;;;;;;;3.40;2.13;;;8.60;99.90;;;;;;5005116;28;20443;-55
2021/01/22 07:47:43;;;;;;;8.13;2.80;;;8.60;99.90;;;;;;5007949;28;20413;-55
2021/01/22 07:50:13;;;;;;;4.90;2.30;;;8.70;99.90;;;;;;5001033;28;20436;-56
2021/01/22 07:52:44;;;;;;;5.63;2.30;;;8.80;99.90;;;;;;5007045;28;21343;-55
2021/01/22 07:55:17;;;;;;;5.00;2.40;;;8.80;99.90;;;;;;5008003;28;20479;-56
2021/01/22 07:57:43;;;;;;;4.80;1.90;;;8.80;99.90;;;;;;5006520;28;20463;-55
2021/01/22 08:00:11;;;;;;;4.00;2.03;;;8.90;99.90;;;;;;5008126;28;20404;-56
2021/01/22 08:02:37;;;;;;;3.70;1.90;;;9.00;99.90;;;;;;5002999;28;20470;-56
2021/01/22 08:05:07;;;;;;;3.78;1.80;;;9.00;99.90;;;;;;5005608;28;20404;-56
2021/01/22 08:07:40;;;;;;;3.40;2.30;;;9.10;99.90;;;;;;5008475;28;20474;-56
2021/01/22 08:10:11;;;;;;;3.90;2.30;;;9.20;99.90;;;;;;5005499;28;20486;-55
2021/01/22 08:12:39;;;;;;;3.42;2.35;;;9.30;99.90;;;;;;5004106;28;20754;-55
2021/01/22 08:15:17;;;;;;;3.33;2.33;;;9.40;99.90;;;;;;5005286;28;20456;-56
2021/01/22 08:17:49;;;;;;;4.80;2.20;;;9.40;99.90;;;;;;5003990;28;20402;-55
2021/01/22 08:20:17;;;;;;;3.90;2.80;;;9.50;99.90;;;;;;5005559;28;20943;-57
2021/01/22 08:22:43;;;;;;;4.60;2.85;;;9.70;99.90;;;;;;5006348;28;20444;-55
2021/01/22 08:25:09;;;;;;;3.30;2.20;;;9.80;99.90;;;;;;5006170;28;20420;-56
2021/01/22 08:27:35;;;;;;;3.58;2.50;;;9.90;99.90;;;;;;5007133;28;20482;-56
2021/01/22 08:30:03;;;;;;;5.93;2.53;;;10.10;99.90;;;;;;5007796;28;20415;-57
2021/01/22 08:32:30;;;;;;;3.80;2.33;;;10.60;99.90;;;;;;5004038;28;20420;-56
2021/01/22 08:34:56;;;;;;;3.83;1.30;;;11.20;99.90;;;;;;5007595;28;20443;-55
2021/01/22 08:37:22;;;;;;;4.60;0.70;;;11.70;99.90;;;;;;5007135;28;20405;-57
2021/01/22 08:39:58;;;;;;;3.40;0.70;;;11.40;99.90;;;;;;5007571;28;20443;-56
2021/01/22 08:42:25;;;;;;;4.00;0.80;;;11.00;99.90;;;;;;5004605;28;20443;-56
2021/01/22 08:44:58;;;;;;;4.03;0.90;;;11.50;99.90;;;;;;5009032;28;20873;-56
2021/01/22 08:47:25;;;;;;;3.40;0.70;;;11.60;99.90;;;;;;5010119;28;20396;-56
2021/01/22 08:49:55;;;;;;;4.00;0.80;;;11.40;99.90;;;;;;5007956;28;20397;-56
2021/01/22 08:52:21;;;;;;;3.72;0.90;;;11.20;99.90;;;;;;5005142;28;20404;-56
2021/01/22 08:54:49;;;;;;;3.90;0.80;;;11.10;99.90;;;;;;5009984;28;20424;-57
2021/01/22 08:57:15;;;;;;;2.97;0.80;;;12.30;99.90;;;;;;5007764;28;20393;-56
2021/01/22 08:59:55;;;;;;;5.40;1.10;;;11.60;99.90;;;;;;5009173;28;20417;-56
2021/01/22 09:02:41;;;;;;;6.30;0.85;;;11.70;99.90;;;;;;5010623;28;20388;-56
2021/01/22 09:05:11;;;;;;;3.30;0.80;;;11.50;99.90;;;;;;5011072;28;20492;-56
2021/01/22 09:07:38;;;;;;;4.68;0.70;;;11.30;99.90;;;;;;5010639;28;20929;-56
2021/01/22 09:10:05;;;;;;;4.57;0.80;;;11.50;99.90;;;;;;5006038;28;20412;-56
2021/01/22 09:12:32;;;;;;;4.68;1.55;;;11.70;99.90;;;;;;5008111;28;20459;-56
2021/01/22 09:15:13;;;;;;;3.40;0.83;;;12.20;99.90;;;;;;5008213;28;20431;-56
2021/01/22 09:17:49;;;;;;;4.00;0.98;;;12.50;99.90;;;;;;5009402;28;20713;-56
2021/01/22 09:20:18;;;;;;;4.20;0.80;;;12.70;99.90;;;;;;5007544;28;20388;-57
2021/01/22 09:22:45;;;;;;;6.30;1.40;;;12.50;99.90;;;;;;5006364;28;20767;-56
2021/01/22 09:25:14;;;;;;;4.00;1.00;;;12.90;99.90;;;;;;5004695;28;20418;-55
2021/01/22 09:27:41;;;;;;;3.58;0.77;;;13.50;99.90;;;;;;5008665;28;20409;-56
2021/01/22 09:30:12;;;;;;;4.80;0.73;;;13.50;99.90;;;;;;5008033;28;20412;-56
2021/01/22 09:32:40;;;;;;;3.80;1.10;;;13.10;99.90;;;;;;5007509;28;20484;-55
2021/01/22 09:35:07;;;;;;;3.20;0.85;;;12.90;99.90;;;;;;5009820;28;20408;-56
2021/01/22 09:37:33;;;;;;;3.10;0.70;;;12.90;99.90;;;;;;5002152;28;20435;-55
2021/01/22 09:39:58;;;;;;;4.60;1.10;;;13.30;99.90;;;;;;5006130;28;20397;-56
2021/01/22 09:42:24;;;;;;;2.90;0.70;;;13.00;99.90;;;;;;5008717;28;20401;-56
2021/01/22 09:44:50;;;;;;;5.00;1.00;;;12.60;99.90;;;;;;5009116;28;20392;-56
2021/01/22 09:47:16;;;;;;;3.40;0.70;;;12.20;99.90;;;;;;5010098;28;20412;-56
2021/01/22 09:49:41;;;;;;;3.92;1.10;;;12.00;99.90;;;;;;5010486;28;20925;-56
2021/01/22 09:52:07;;;;;;;5.68;0.90;;;11.90;99.90;;;;;;5008637;28;20405;-56
2021/01/22 09:54:33;;;;;;;5.00;1.40;;;11.70;99.90;;;;;;5010455;28;20413;-57
2021/01/22 09:56:59;;;;;;;8.80;5.67;;;11.50;99.90;;;;;;5007354;28;20401;-56
2021/01/22 09:59:24;;;;;;;6.45;2.95;;;11.30;99.90;;;;;;5008489;28;20411;-56
2021/01/22 10:01:50;;;;;;;15.60;9.60;;;11.30;99.90;;;;;;5010921;28;20393;-56
2021/01/22 10:04:16;;;;;;;11.27;4.70;;;11.40;99.90;;;;;;5009060;28;20397;-56
2021/01/22 10:06:41;;;;;;;7.80;3.23;;;11.40;99.90;;;;;;5009778;28;20412;-56
2021/01/22 10:09:10;;;;;;;10.65;2.80;;;11.40;99.90;;;;;;5008360;28;20396;-56
2021/01/22 10:11:39;;;;;;;6.57;2.40;;;11.50;99.90;;;;;;4999743;28;20565;-56
2021/01/22 10:14:05;;;;;;;5.57;1.90;;;11.60;99.90;;;;;;5005508;28;21032;-56
2021/01/22 10:16:31;;;;;;;4.32;1.73;;;11.70;99.90;;;;;;5005435;28;20399;-56
2021/01/22 10:18:57;;;;;;;5.60;1.40;;;11.80;99.90;;;;;;5002522;28;20471;-55
2021/01/22 10:21:23;;;;;;;4.82;2.17;;;11.60;99.90;;;;;;5003195;28;20436;-56
2021/01/22 10:23:51;;;;;;;10.50;5.60;;;11.70;99.90;;;;;;5002792;28;20430;-56
2021/01/22 10:26:18;;;;;;;6.95;3.75;;;11.90;99.90;;;;;;5003411;28;20626;-56
2021/01/22 10:28:44;;;;;;;5.15;2.17;;;12.00;99.90;;;;;;5004868;28;20404;-56
2021/01/22 10:31:10;;;;;;;7.05;3.10;;;12.10;99.90;;;;;;5007976;28;20409;-56
2021/01/22 10:33:37;;;;;;;5.38;1.70;;;12.10;99.90;;;;;;5010195;28;20415;-56
2021/01/22 10:36:04;;;;;;;4.95;1.15;;;12.20;99.90;;;;;;5006257;28;20420;-56
2021/01/22 10:38:29;;;;;;;4.63;1.10;;;12.30;99.90;;;;;;5005062;28;20429;-56
2021/01/22 10:40:56;;;;;;;5.17;1.27;;;12.60;99.90;;;;;;5006213;28;20730;-55
2021/01/22 10:43:25;;;;;;;6.70;1.15;;;13.00;99.90;;;;;;5003290;28;20403;-57
2021/01/22 10:45:51;;;;;;;5.35;1.80;;;13.20;99.90;;;;;;5005135;28;20778;-57
2021/01/22 10:48:18;;;;;;;4.53;0.87;;;14.00;99.90;;;;;;5006907;28;20416;-56
2021/01/22 10:50:45;;;;;;;4.57;1.90;;;14.10;99.90;;;;;;5007829;28;20405;-56
2021/01/22 10:53:11;;;;;;;4.38;2.17;;;14.90;99.90;;;;;;5015950;28;20451;-55
2021/01/22 10:55:36;;;;;;;4.50;2.10;;;15.60;99.90;;;;;;5006139;28;20389;-55
2021/01/22 10:58:02;;;;;;;5.20;3.10;;;15.70;99.90;;;;;;5005958;28;20430;-54
2021/01/22 11:00:28;;;;;;;3.88;1.13;;;15.20;99.90;;;;;;5003563;28;20400;-57
2021/01/22 11:02:54;;;;;;;3.90;1.10;;;14.80;99.90;;;;;;5007421;28;20900;-56
2021/01/22 11:05:19;;;;;;;4.50;1.10;;;14.70;99.90;;;;;;5006703;28;20409;-57
2021/01/22 11:07:45;;;;;;;5.70;1.20;;;14.70;99.90;;;;;;5006871;28;20455;-56
2021/01/22 11:10:11;;;;;;;5.30;1.17;;;14.20;99.90;;;;;;5002995;28;20413;-56
2021/01/22 11:12:37;;;;;;;3.28;0.80;;;14.30;99.90;;;;;;5006078;28;20936;-57
2021/01/22 11:15:04;;;;;;;6.00;1.50;;;14.10;99.90;;;;;;5006638;28;20492;-57
2021/01/22 11:17:30;;;;;;;4.65;0.90;;;13.90;99.90;;;;;;5005400;28;20479;-56
2021/01/22 11:19:56;;;;;;;4.13;0.80;;;13.80;99.90;;;;;;5007461;28;20910;-55
2021/01/22 11:22:22;;;;;;;4.30;1.10;;;13.80;99.90;;;;;;5004816;28;20466;-56
2021/01/22 11:24:48;;;;;;;3.75;0.90;;;13.60;99.90;;;;;;5007623;28;20401;-57
2021/01/22 11:27:13;;;;;;;4.00;0.90;;;13.40;99.90;;;;;;5008405;28;20443;-57
2021/01/22 11:29:39;;;;;;;3.90;0.80;;;13.30;99.90;;;;;;5006056;28;20431;-57
2021/01/22 11:32:05;;;;;;;4.83;1.27;;;13.20;99.90;;;;;;5007043;28;20405;-56
2021/01/22 11:34:35;;;;;;;4.00;2.00;;;13.10;99.90;;;;;;5007795;28;20416;-57
2021/01/22 11:37:00;;;;;;;4.43;2.10;;;13.20;99.90;;;;;;5005258;28;20946;-57
2021/01/22 11:39:26;;;;;;;4.10;2.05;;;13.10;99.90;;;;;;5008443;28;20471;-57
2021/01/22 11:41:53;;;;;;;6.10;2.40;;;13.30;99.90;;;;;;5006476;28;20404;-57
2021/01/22 11:44:19;;;;;;;4.63;2.40;;;13.30;99.90;;;;;;5006694;28;20393;-56
2021/01/22 11:46:45;;;;;;;4.38;2.03;;;13.30;99.90;;;;;;5005901;28;20439;-57
2021/01/22 11:49:11;;;;;;;3.90;1.85;;;13.50;99.90;;;;;;5006206;28;20429;-57
2021/01/22 11:51:36;;;;;;;4.43;2.00;;;13.50;99.90;;;;;;5008902;28;20424;-57
2021/01/22 11:54:04;;;;;;;3.65;2.08;;;13.60;99.90;;;;;;5007669;28;20480;-57
2021/01/22 11:56:30;;;;;;;3.40;1.90;;;13.70;99.90;;;;;;5009948;28;20435;-57
2021/01/22 11:58:56;;;;;;;3.90;2.30;;;13.60;99.90;;;;;;5007618;28;20412;-56
2021/01/22 12:01:22;;;;;;;5.28;2.42;;;13.50;99.90;;;;;;5009269;28;20396;-57
2021/01/22 12:03:47;;;;;;;4.60;2.30;;;13.50;99.90;;;;;;5008773;28;20392;-57
2021/01/22 12:06:13;;;;;;;4.60;2.20;;;13.50;99.90;;;;;;5007941;28;20396;-56
2021/01/22 12:08:39;;;;;;;3.70;1.80;;;13.50;99.90;;;;;;5009684;28;20392;-57
2021/01/22 12:11:04;;;;;;;4.03;1.97;;;13.60;99.90;;;;;;5008254;28;20397;-58
2021/01/22 12:13:30;;;;;;;4.40;2.10;;;13.40;99.90;;;;;;5008298;28;20400;-57
2021/01/22 12:15:55;;;;;;;6.85;3.30;;;13.50;99.90;;;;;;5008889;28;20393;-57
2021/01/22 12:18:21;;;;;;;4.47;1.90;;;13.60;99.90;;;;;;4994769;28;20845;-57
2021/01/22 12:20:47;;;;;;;4.50;2.00;;;13.60;99.90;;;;;;5008790;28;20502;-57
2021/01/22 12:23:12;;;;;;;4.10;2.27;;;13.60;99.90;;;;;;5009693;28;20884;-57
2021/01/22 12:25:42;;;;;;;4.10;2.03;;;13.70;99.90;;;;;;5007273;28;20445;-57
2021/01/22 12:28:08;;;;;;;5.30;2.10;;;13.80;99.90;;;;;;5010025;28;20424;-57
2021/01/22 12:30:33;;;;;;;3.70;1.90;;;13.70;99.90;;;;;;5011293;28;20427;-57
2021/01/22 12:32:59;;;;;;;4.03;1.90;;;13.80;99.90;;;;;;5010468;28;20412;-56
2021/01/22 12:35:24;;;;;;;4.35;1.80;;;13.90;99.90;;;;;;5007564;28;20485;-57
2021/01/22 12:37:50;;;;;;;5.20;1.70;;;14.00;99.90;;;;;;5012635;28;20420;-57
2021/01/22 12:40:16;;;;;;;4.07;1.80;;;13.90;99.90;;;;;;5010260;28;20821;-58
2021/01/22 12:42:42;;;;;;;4.10;1.60;;;13.80;99.90;;;;;;5008800;28;20450;-57
2021/01/22 12:45:08;;;;;;;3.53;1.80;;;13.70;99.90;;;;;;5009909;28;20754;-56
2021/01/22 12:47:33;;;;;;;3.78;1.98;;;13.60;99.90;;;;;;5008962;28;20416;-57
2021/01/22 12:49:59;;;;;;;4.45;2.20;;;13.60;99.90;;;;;;5011267;28;20397;-56
2021/01/22 12:52:25;;;;;;;6.00;2.20;;;13.60;99.90;;;;;;5010972;28;20381;-57
2021/01/22 12:54:50;;;;;;;4.00;2.53;;;13.60;99.90;;;;;;5010593;28;20838;-57
2021/01/22 12:57:16;;;;;;;4.10;1.97;;;13.40;99.90;;;;;;5009570;28;20399;-57